Time,TemperatureF,DewpointF,PressureIn,WindDirection,WindDirectionDegrees,WindSpeedMPH,WindSpeedGustMPH,Humidity,HourlyPrecipIn,Conditions,Clouds,dailyrainin,SoftwareType,DateUTC
2013-01-31 00:10:00,45.0,41.7,30.48,South,180,0.0,0.0,88,0.00,,,0.00,open2300-1.11,2013-01-31 08:10:00,
2013-01-31 00:20:00,44.8,41.5,30.47,South,180,0.0,0.0,88,0.00,,,0.00,open2300-1.11,2013-01-31 08:20:00,
2013-01-31 00:30:00,44.6,41.3,30.47,South,180,0.0,0.0,88,0.00,,,0.00,open2300-1.11,2013-01-31 08:30:00,
2013-01-31 00:40:00,44.6,41.6,30.47,South,180,0.0,0.0,89,0.00,,,0.00,open2300-1.11,2013-01-31 08:40:00,
2013-01-31 00:50:00,44.6,41.6,30.47,South,180,0.0,0.0,89,0.00,,,0.00,open2300-1.11,2013-01-31 08:50:00,
2013-01-31 01:10:00,44.4,41.4,30.46,South,180,0.0,0.0,89,0.00,,,0.00,open2300-1.11,2013-01-31 09:10:00,
2013-01-31 01:20:00,44.2,41.2,30.46,South,180,0.0,0.0,89,0.00,,,0.00,open2300-1.11,2013-01-31 09:20:00,
2013-01-31 01:30:00,44.2,41.2,30.46,South,180,0.0,0.0,89,0.00,,,0.00,open2300-1.11,2013-01-31 09:30:00,
2013-01-31 01:40:00,44.2,41.2,30.46,South,180,0.0,0.0,89,0.00,,,0.00,open2300-1.11,2013-01-31 09:40:00,
2013-01-31 01:50:00,44.2,41.2,30.46,South,180,0.0,0.0,89,0.00,,,0.00,open2300-1.11,2013-01-31 09:50:00,
2013-01-31 02:10:00,44.4,41.4,30.46,South,180,0.0,0.0,89,0.00,,,0.00,open2300-1.11,2013-01-31 10:10:00,
2013-01-31 02:20:00,44.4,41.4,30.47,South,180,0.0,0.0,89,0.00,,,0.00,open2300-1.11,2013-01-31 10:20:00,
2013-01-31 02:30:00,44.4,41.4,30.47,South,180,0.0,0.0,89,0.00,,,0.00,open2300-1.11,2013-01-31 10:30:00,
2013-01-31 02:40:00,44.4,41.4,30.47,South,180,0.0,0.0,89,0.00,,,0.00,open2300-1.11,2013-01-31 10:40:00,
2013-01-31 02:50:00,44.4,41.4,30.46,South,180,0.0,0.0,89,0.02,,,0.02,open2300-1.11,2013-01-31 10:50:00,
2013-01-31 03:10:00,44.4,41.4,30.46,South,180,0.0,0.0,89,0.02,,,0.02,open2300-1.11,2013-01-31 11:10:00,
2013-01-31 03:20:00,44.6,41.6,30.45,South,180,0.0,0.0,89,0.02,,,0.02,open2300-1.11,2013-01-31 11:20:00,
2013-01-31 03:30:00,44.6,41.6,30.45,South,180,0.0,0.0,89,0.02,,,0.02,open2300-1.11,2013-01-31 11:30:00,
2013-01-31 03:40:00,44.6,41.6,30.45,South,180,0.0,0.0,89,0.02,,,0.02,open2300-1.11,2013-01-31 11:40:00,
2013-01-31 03:50:00,44.4,41.4,30.44,South,180,0.0,0.0,89,0.00,,,0.02,open2300-1.11,2013-01-31 11:50:00,
2013-01-31 04:10:00,44.4,41.4,30.44,South,180,0.0,0.0,89,0.00,,,0.02,open2300-1.11,2013-01-31 12:10:00,
2013-01-31 04:20:00,44.4,41.4,30.44,South,180,0.0,0.0,89,0.00,,,0.02,open2300-1.11,2013-01-31 12:20:00,
2013-01-31 04:30:00,44.2,41.2,30.44,South,180,0.0,0.0,89,0.00,,,0.02,open2300-1.11,2013-01-31 12:30:00,
2013-01-31 04:40:00,44.2,41.2,30.44,South,180,0.0,0.0,89,0.00,,,0.02,open2300-1.11,2013-01-31 12:40:00,
2013-01-31 04:50:00,44.2,41.2,30.44,South,180,0.0,0.0,89,0.00,,,0.02,open2300-1.11,2013-01-31 12:50:00,
2013-01-31 05:10:00,44.2,41.2,30.44,South,180,0.0,0.0,89,0.00,,,0.02,open2300-1.11,2013-01-31 13:10:00,
2013-01-31 05:20:00,44.2,41.2,30.44,South,180,0.0,0.0,89,0.00,,,0.02,open2300-1.11,2013-01-31 13:20:00,
2013-01-31 05:30:00,44.2,41.2,30.44,South,180,0.0,0.0,89,0.00,,,0.02,open2300-1.11,2013-01-31 13:30:00,
2013-01-31 05:40:00,44.2,41.5,30.44,South,180,0.0,0.0,90,0.00,,,0.02,open2300-1.11,2013-01-31 13:40:00,
2013-01-31 05:50:00,44.2,41.5,30.44,South,180,0.0,0.0,90,0.00,,,0.02,open2300-1.11,2013-01-31 13:50:00,
2013-01-31 06:00:00,44.2,41.5,30.43,South,180,0.0,0.0,90,0.00,,,0.02,open2300-1.11,2013-01-31 14:00:00,
2013-01-31 06:10:00,44.2,41.5,30.44,South,180,0.0,0.0,90,0.00,,,0.02,open2300-1.11,2013-01-31 14:10:00,
2013-01-31 06:20:00,44.2,41.5,30.44,South,180,0.0,0.0,90,0.00,,,0.02,open2300-1.11,2013-01-31 14:20:00,
2013-01-31 06:30:00,44.1,41.4,30.44,South,180,0.0,0.0,90,0.00,,,0.02,open2300-1.11,2013-01-31 14:30:00,
2013-01-31 06:40:00,43.9,41.2,30.44,South,180,0.0,0.0,90,0.00,,,0.02,open2300-1.11,2013-01-31 14:40:00,
2013-01-31 06:50:00,43.7,41.0,30.44,South,180,0.0,0.0,90,0.00,,,0.02,open2300-1.11,2013-01-31 14:50:00,
2013-01-31 07:00:00,43.7,40.7,30.44,South,180,0.0,0.0,89,0.00,,,0.02,open2300-1.11,2013-01-31 15:00:00,
2013-01-31 07:10:00,43.5,40.5,30.43,South,180,0.0,0.0,89,0.00,,,0.02,open2300-1.11,2013-01-31 15:10:00,
2013-01-31 07:20:00,43.5,40.5,30.43,South,180,0.0,0.0,89,0.00,,,0.02,open2300-1.11,2013-01-31 15:20:00,
2013-01-31 07:30:00,43.3,40.3,30.44,South,180,0.0,0.0,89,0.00,,,0.02,open2300-1.11,2013-01-31 15:30:00,
2013-01-31 07:40:00,43.3,40.3,30.44,South,180,0.0,0.0,89,0.00,,,0.02,open2300-1.11,2013-01-31 15:40:00,
2013-01-31 07:50:00,43.3,40.3,30.44,South,180,0.0,0.0,89,0.00,,,0.02,open2300-1.11,2013-01-31 15:50:00,
2013-01-31 08:00:00,43.3,40.3,30.44,South,180,0.0,0.0,89,0.00,,,0.02,open2300-1.11,2013-01-31 16:00:00,
2013-01-31 08:10:00,43.5,40.5,30.44,South,180,0.0,0.0,89,0.00,,,0.02,open2300-1.11,2013-01-31 16:10:00,
2013-01-31 08:20:00,43.7,40.7,30.44,South,180,0.0,0.0,89,0.00,,,0.02,open2300-1.11,2013-01-31 16:20:00,
2013-01-31 08:30:00,44.1,41.4,30.44,South,180,0.0,0.0,90,0.00,,,0.02,open2300-1.11,2013-01-31 16:30:00,
2013-01-31 08:40:00,44.4,41.7,30.44,South,180,0.0,0.0,90,0.00,,,0.02,open2300-1.11,2013-01-31 16:40:00,
2013-01-31 08:50:00,44.8,42.1,30.45,South,180,0.0,0.0,90,0.00,,,0.02,open2300-1.11,2013-01-31 16:50:00,
2013-01-31 09:00:00,45.1,42.4,30.44,South,180,0.0,0.0,90,0.00,,,0.02,open2300-1.11,2013-01-31 17:00:00,
2013-01-31 09:10:00,45.3,42.6,30.45,South,180,0.0,0.0,90,0.00,,,0.02,open2300-1.11,2013-01-31 17:10:00,
2013-01-31 09:20:00,45.7,43.0,30.45,South,180,0.0,0.0,90,0.00,,,0.02,open2300-1.11,2013-01-31 17:20:00,
2013-01-31 09:30:00,46.2,43.5,30.44,South,180,0.0,0.0,90,0.00,,,0.02,open2300-1.11,2013-01-31 17:30:00,
2013-01-31 09:40:00,46.2,43.5,30.45,South,180,0.0,0.0,90,0.00,,,0.02,open2300-1.11,2013-01-31 17:40:00,
2013-01-31 09:50:00,46.6,43.9,30.44,South,180,0.0,0.0,90,0.00,,,0.02,open2300-1.11,2013-01-31 17:50:00,
2013-01-31 10:00:00,46.9,44.2,30.45,South,180,0.0,0.0,90,0.00,,,0.02,open2300-1.11,2013-01-31 18:00:00,
2013-01-31 10:10:00,47.1,44.4,30.45,South,180,0.0,0.0,90,0.00,,,0.02,open2300-1.11,2013-01-31 18:10:00,
2013-01-31 10:20:00,47.8,45.1,30.45,South,180,0.0,0.0,90,0.00,,,0.02,open2300-1.11,2013-01-31 18:20:00,
2013-01-31 10:30:00,48.0,45.0,30.45,South,180,0.0,0.0,89,0.00,,,0.02,open2300-1.11,2013-01-31 18:30:00,
2013-01-31 10:40:00,48.7,45.7,30.44,South,180,0.0,0.0,89,0.00,,,0.02,open2300-1.11,2013-01-31 18:40:00,
2013-01-31 10:50:00,48.7,45.7,30.44,South,180,0.0,0.0,89,0.00,,,0.02,open2300-1.11,2013-01-31 18:50:00,
2013-01-31 11:00:00,49.5,46.0,30.44,South,180,0.0,0.0,88,0.00,,,0.02,open2300-1.11,2013-01-31 19:00:00,
2013-01-31 11:10:00,50.7,47.2,30.44,South,180,0.0,0.0,88,0.00,,,0.02,open2300-1.11,2013-01-31 19:10:00,
2013-01-31 11:20:00,52.0,47.9,30.43,SE,135,0.0,114.1,86,0.00,,,0.02,open2300-1.11,2013-01-31 19:20:00,
2013-01-31 11:30:00,52.5,47.5,30.43,East,90,0.0,0.0,83,0.00,,,0.02,open2300-1.11,2013-01-31 19:30:00,
2013-01-31 11:40:00,52.7,47.4,30.43,SE,135,0.0,0.0,82,0.00,,,0.02,open2300-1.11,2013-01-31 19:40:00,
2013-01-31 11:50:00,53.4,47.8,30.43,SE,135,0.0,114.1,81,0.00,,,0.02,open2300-1.11,2013-01-31 19:50:00,
2013-01-31 12:00:00,53.8,47.5,30.43,SSE,157,0.0,0.0,79,0.00,,,0.02,open2300-1.11,2013-01-31 20:00:00,
2013-01-31 12:10:00,54.3,48.0,30.42,SSE,157,0.0,0.0,79,0.00,,,0.02,open2300-1.11,2013-01-31 20:10:00,
2013-01-31 12:20:00,54.9,47.8,30.42,South,180,0.0,0.0,77,0.00,,,0.02,open2300-1.11,2013-01-31 20:20:00,
2013-01-31 12:30:00,55.0,47.9,30.41,SSE,157,0.0,4.0,77,0.00,,,0.02,open2300-1.11,2013-01-31 20:30:00,
2013-01-31 12:40:00,54.7,46.9,30.41,SE,135,0.0,5.8,75,0.00,,,0.02,open2300-1.11,2013-01-31 20:40:00,
2013-01-31 12:50:00,54.1,46.7,30.41,South,180,0.0,5.1,76,0.00,,,0.02,open2300-1.11,2013-01-31 20:50:00,
2013-01-31 13:00:00,53.8,46.4,30.40,SE,135,0.0,0.0,76,0.00,,,0.02,open2300-1.11,2013-01-31 21:00:00,
2013-01-31 13:10:00,53.8,46.0,30.40,SW,225,0.0,0.0,75,0.00,,,0.02,open2300-1.11,2013-01-31 21:10:00,
2013-01-31 13:20:00,53.8,46.4,30.40,South,180,0.0,114.1,76,0.00,,,0.02,open2300-1.11,2013-01-31 21:20:00,
2013-01-31 13:30:00,53.8,46.0,30.40,South,180,0.0,0.0,75,0.00,,,0.02,open2300-1.11,2013-01-31 21:30:00,
2013-01-31 13:40:00,54.0,46.2,30.39,ESE,112,0.0,0.0,75,0.00,,,0.02,open2300-1.11,2013-01-31 21:40:00,
2013-01-31 13:50:00,53.8,45.7,30.39,South,180,0.0,1.3,74,0.00,,,0.02,open2300-1.11,2013-01-31 21:50:00,
2013-01-31 14:00:00,54.1,46.0,30.38,SSE,157,0.0,0.0,74,0.00,,,0.02,open2300-1.11,2013-01-31 22:00:00,
2013-01-31 14:10:00,54.3,46.2,30.38,SSE,157,0.0,4.5,74,0.00,,,0.02,open2300-1.11,2013-01-31 22:10:00,
2013-01-31 14:20:00,54.3,45.5,30.38,SW,225,0.0,3.4,72,0.00,,,0.02,open2300-1.11,2013-01-31 22:20:00,
2013-01-31 14:30:00,54.0,44.8,30.38,NW,315,0.0,0.0,71,0.00,,,0.02,open2300-1.11,2013-01-31 22:30:00,
2013-01-31 14:40:00,53.8,44.9,30.38,West,270,0.0,0.0,72,0.00,,,0.02,open2300-1.11,2013-01-31 22:40:00,
2013-01-31 14:50:00,53.8,45.3,30.38,SSE,157,0.0,0.0,73,0.00,,,0.02,open2300-1.11,2013-01-31 22:50:00,
2013-01-31 15:00:00,54.0,45.1,30.38,WSW,247,0.0,0.0,72,0.00,,,0.02,open2300-1.11,2013-01-31 23:00:00,
2013-01-31 15:10:00,54.3,45.1,30.38,SSW,202,3.4,5.4,71,0.00,,,0.02,open2300-1.11,2013-01-31 23:10:00,
2013-01-31 15:20:00,54.3,44.8,30.38,SSW,202,0.0,5.6,70,0.00,,,0.02,open2300-1.11,2013-01-31 23:20:00,
2013-01-31 15:30:00,54.7,45.5,30.38,West,270,0.0,2.5,71,0.00,,,0.02,open2300-1.11,2013-01-31 23:30:00,
2013-01-31 15:40:00,54.5,45.3,30.38,SW,225,0.0,8.3,71,0.00,,,0.02,open2300-1.11,2013-01-31 23:40:00,
2013-01-31 15:50:00,54.5,45.0,30.38,SW,225,0.0,5.1,70,0.00,,,0.02,open2300-1.11,2013-01-31 23:50:00,
2013-01-31 16:00:00,54.5,45.0,30.37,South,180,0.0,7.2,70,0.00,,,0.02,open2300-1.11,2013-02-01 00:00:00,
2013-01-31 16:10:00,54.7,44.3,30.37,WSW,247,0.0,2.5,68,0.00,,,0.02,open2300-1.11,2013-02-01 00:10:00,
2013-01-31 16:20:00,54.7,44.3,30.37,SSW,202,0.0,0.0,68,0.00,,,0.02,open2300-1.11,2013-02-01 00:20:00,
2013-01-31 16:30:00,54.7,43.9,30.37,WSW,247,0.0,1.6,67,0.00,,,0.02,open2300-1.11,2013-02-01 00:30:00,
2013-01-31 16:40:00,54.3,43.2,30.37,SW,225,0.0,0.0,66,0.00,,,0.02,open2300-1.11,2013-02-01 00:40:00,
2013-01-31 16:50:00,54.0,43.2,30.37,South,180,0.0,0.0,67,0.00,,,0.02,open2300-1.11,2013-02-01 00:50:00,
2013-01-31 17:00:00,53.8,43.0,30.37,South,180,0.0,0.0,67,0.00,,,0.02,open2300-1.11,2013-02-01 01:00:00,
2013-01-31 17:10:00,53.2,42.9,30.36,SW,225,0.0,0.0,68,0.00,,,0.02,open2300-1.11,2013-02-01 01:10:00,
2013-01-31 17:20:00,52.9,42.6,30.36,SW,225,0.0,0.0,68,0.00,,,0.02,open2300-1.11,2013-02-01 01:20:00,
2013-01-31 17:30:00,52.5,42.7,30.36,SSW,202,0.0,0.0,69,0.00,,,0.02,open2300-1.11,2013-02-01 01:30:00,
2013-01-31 17:40:00,52.3,42.1,30.36,SW,225,0.0,1.1,68,0.00,,,0.02,open2300-1.11,2013-02-01 01:40:00,
2013-01-31 17:50:00,51.8,42.0,30.36,SSW,202,0.0,0.0,69,0.00,,,0.02,open2300-1.11,2013-02-01 01:50:00,
2013-01-31 18:00:00,51.6,42.3,30.36,SW,225,0.0,0.0,70,0.00,,,0.02,open2300-1.11,2013-02-01 02:00:00,
2013-01-31 18:10:00,51.4,42.4,30.36,SW,225,0.0,0.0,71,0.00,,,0.02,open2300-1.11,2013-02-01 02:10:00,
2013-01-31 18:20:00,51.1,42.4,30.36,SSW,202,0.0,0.0,72,0.00,,,0.02,open2300-1.11,2013-02-01 02:20:00,
2013-01-31 18:30:00,50.9,42.2,30.36,SW,225,0.0,0.0,72,0.00,,,0.02,open2300-1.11,2013-02-01 02:30:00,
2013-01-31 18:40:00,50.7,42.0,30.36,SW,225,0.0,0.0,72,0.00,,,0.02,open2300-1.11,2013-02-01 02:40:00,
2013-01-31 18:50:00,50.7,42.4,30.36,SW,225,0.0,0.0,73,0.00,,,0.02,open2300-1.11,2013-02-01 02:50:00,
2013-01-31 19:00:00,50.5,42.5,30.36,South,180,0.0,0.0,74,0.00,,,0.02,open2300-1.11,2013-02-01 03:00:00,
2013-01-31 19:10:00,50.0,42.3,30.36,SE,135,0.0,0.0,75,0.00,,,0.02,open2300-1.11,2013-02-01 03:10:00,
2013-01-31 19:20:00,49.6,42.3,30.36,ESE,112,0.0,0.0,76,0.00,,,0.02,open2300-1.11,2013-02-01 03:20:00,
2013-01-31 19:30:00,49.3,42.3,30.36,SE,135,0.0,0.0,77,0.00,,,0.02,open2300-1.11,2013-02-01 03:30:00,
2013-01-31 19:40:00,49.1,42.5,30.36,SE,135,0.0,1.1,78,0.00,,,0.02,open2300-1.11,2013-02-01 03:40:00,
2013-01-31 19:50:00,48.7,42.5,30.36,SE,135,0.0,1.1,79,0.00,,,0.02,open2300-1.11,2013-02-01 03:50:00,
2013-01-31 20:00:00,48.2,41.9,30.35,SE,135,0.0,1.1,79,0.00,,,0.02,open2300-1.11,2013-02-01 04:00:00,
2013-01-31 20:10:00,48.0,42.1,30.35,SE,135,0.0,0.0,80,0.00,,,0.02,open2300-1.11,2013-02-01 04:10:00,
2013-01-31 20:20:00,47.7,41.8,30.35,SE,135,0.0,1.8,80,0.00,,,0.02,open2300-1.11,2013-02-01 04:20:00,
2013-01-31 20:30:00,47.3,41.8,30.35,SE,135,0.0,0.0,81,0.00,,,0.02,open2300-1.11,2013-02-01 04:30:00,
2013-01-31 20:40:00,47.3,41.8,30.36,SSE,157,0.0,0.0,81,0.00,,,0.02,open2300-1.11,2013-02-01 04:40:00,
2013-01-31 20:50:00,47.3,42.1,30.36,SSE,157,0.0,0.0,82,0.00,,,0.02,open2300-1.11,2013-02-01 04:50:00,
2013-01-31 21:00:00,47.3,42.1,30.36,SSE,157,0.0,0.0,82,0.00,,,0.02,open2300-1.11,2013-02-01 05:00:00,
2013-01-31 21:10:00,47.3,42.1,30.36,SSE,157,0.0,0.0,82,0.00,,,0.02,open2300-1.11,2013-02-01 05:10:00,
2013-01-31 21:20:00,47.3,42.1,30.36,SSE,157,0.0,0.0,82,0.00,,,0.02,open2300-1.11,2013-02-01 05:20:00,
2013-01-31 21:30:00,47.3,42.1,30.36,SSE,157,0.0,0.0,82,0.00,,,0.02,open2300-1.11,2013-02-01 05:30:00,
2013-01-31 21:40:00,47.1,41.9,30.36,SSE,157,0.0,0.0,82,0.00,,,0.02,open2300-1.11,2013-02-01 05:40:00,
2013-01-31 21:50:00,47.1,41.9,30.36,SSE,157,0.0,0.0,82,0.00,,,0.02,open2300-1.11,2013-02-01 05:50:00,
2013-01-31 22:00:00,47.1,41.9,30.36,South,180,0.0,0.0,82,0.00,,,0.02,open2300-1.11,2013-02-01 06:00:00,
2013-01-31 22:10:00,47.1,42.2,30.36,South,180,0.0,0.0,83,0.00,,,0.02,open2300-1.11,2013-02-01 06:10:00,
2013-01-31 22:20:00,47.1,42.2,30.36,South,180,0.0,0.0,83,0.00,,,0.02,open2300-1.11,2013-02-01 06:20:00,
2013-01-31 22:30:00,46.9,42.0,30.36,South,180,0.0,0.0,83,0.00,,,0.02,open2300-1.11,2013-02-01 06:30:00,
2013-01-31 22:40:00,46.8,41.9,30.36,ESE,112,0.0,0.0,83,0.00,,,0.02,open2300-1.11,2013-02-01 06:40:00,
2013-01-31 22:50:00,46.4,41.6,30.36,ESE,112,0.0,0.0,83,0.00,,,0.02,open2300-1.11,2013-02-01 06:50:00,
2013-01-31 23:10:00,46.2,41.7,30.37,ESE,112,0.0,0.0,84,0.00,,,0.02,open2300-1.11,2013-02-01 07:10:00,
2013-01-31 23:20:00,46.2,41.7,30.37,ESE,112,0.0,0.0,84,0.00,,,0.02,open2300-1.11,2013-02-01 07:20:00,
2013-01-31 23:30:00,46.0,41.5,30.37,SE,135,0.0,0.0,84,0.00,,,0.02,open2300-1.11,2013-02-01 07:30:00,
2013-01-31 23:40:00,46.0,41.5,30.37,South,180,0.0,0.0,84,0.00,,,0.02,open2300-1.11,2013-02-01 07:40:00,
2013-01-31 23:50:00,45.7,41.1,30.36,SSE,157,0.0,0.0,84,0.00,,,0.02,open2300-1.11,2013-02-01 07:50:00,